createdAt,value
2022-11-23T00:02:02.029Z,0.80
2022-11-23T00:06:11.188Z,0.70
2022-11-23T00:10:21.932Z,0.90
2022-11-23T00:14:31.510Z,0.70
2022-11-23T00:18:40.829Z,0.93
2022-11-23T00:22:49.910Z,0.60
2022-11-23T00:27:00.652Z,1.00
2022-11-23T00:31:11.272Z,1.03
2022-11-23T00:35:20.472Z,0.50
2022-11-23T00:39:29.971Z,0.80
2022-11-23T00:43:41.028Z,0.90
2022-11-23T00:47:50.069Z,1.00
2022-11-23T00:51:59.346Z,0.97
2022-11-23T00:56:09.116Z,1.20
2022-11-23T01:00:20.447Z,1.23
2022-11-23T01:04:29.991Z,1.30
2022-11-23T01:08:41.365Z,1.43
2022-11-23T01:12:50.580Z,1.30
2022-11-23T01:17:01.237Z,1.30
2022-11-23T01:21:10.809Z,2.20
2022-11-23T01:25:20.034Z,2.20
2022-11-23T01:29:29.544Z,2.17
2022-11-23T01:33:40.728Z,2.80
2022-11-23T01:37:50.152Z,3.13
2022-11-23T01:41:59.271Z,4.50
2022-11-23T01:46:08.994Z,4.73
2022-11-23T01:50:19.934Z,4.00
2022-11-23T01:54:34.421Z,4.27
2022-11-23T01:58:47.714Z,4.80
2022-11-23T02:03:00.132Z,6.87
2022-11-23T02:07:11.208Z,10.23
2022-11-23T02:11:20.392Z,10.30
2022-11-23T02:15:29.571Z,11.77
2022-11-23T02:19:49.291Z,12.57
2022-11-23T02:24:05.471Z,11.27
2022-11-23T02:28:19.574Z,12.97
2022-11-23T02:32:29.272Z,13.50
2022-11-23T02:36:41.476Z,12.33
2022-11-23T02:40:50.750Z,12.03
2022-11-23T02:45:10.209Z,13.03
2022-11-23T02:49:19.443Z,12.50
2022-11-23T02:53:28.588Z,12.63
2022-11-23T02:57:38.393Z,12.97
2022-11-23T03:01:49.095Z,13.73
2022-11-23T03:05:58.233Z,13.23
2022-11-23T03:10:08.670Z,14.87
2022-11-23T03:14:18.953Z,14.47
2022-11-23T03:18:29.691Z,14.20
2022-11-23T03:22:38.753Z,13.77
2022-11-23T03:26:47.891Z,13.13
2022-11-23T03:30:57.099Z,12.90
2022-11-23T03:35:09.374Z,10.93
2022-11-23T03:39:18.532Z,9.53
2022-11-23T03:43:27.649Z,8.33
2022-11-23T03:47:36.733Z,9.20
2022-11-23T03:51:47.415Z,9.40
2022-11-23T03:55:58.563Z,9.60
2022-11-23T04:00:09.696Z,8.03
2022-11-23T04:04:19.414Z,7.53
2022-11-23T04:08:30.099Z,8.67
2022-11-23T04:12:39.112Z,8.40
2022-11-23T04:16:48.310Z,5.87
2022-11-23T04:20:57.493Z,5.23
2022-11-23T04:25:08.910Z,5.00
2022-11-23T04:29:20.390Z,5.87
2022-11-23T04:33:29.529Z,5.97
2022-11-23T04:37:38.616Z,6.33
2022-11-23T04:41:49.351Z,6.43
2022-11-23T04:45:58.472Z,3.97
2022-11-23T04:50:08.649Z,3.93
2022-11-23T04:54:17.748Z,3.67
2022-11-23T04:58:31.605Z,2.97
2022-11-23T05:02:43.350Z,3.10
2022-11-23T05:06:52.490Z,3.03
2022-11-23T05:11:01.712Z,3.03
2022-11-23T05:15:15.648Z,2.40
2022-11-23T05:19:25.072Z,2.53
2022-11-23T05:23:34.209Z,3.13
2022-11-23T05:27:43.390Z,2.73
2022-11-23T05:31:54.091Z,3.00
2022-11-23T05:36:03.230Z,4.27
2022-11-23T05:40:13.209Z,4.20
2022-11-23T05:44:23.350Z,5.30
2022-11-23T05:48:33.992Z,5.27
2022-11-23T05:52:43.290Z,5.07
2022-11-23T05:56:52.474Z,4.97
2022-11-23T06:01:02.534Z,4.93
2022-11-23T06:05:13.313Z,4.37
2022-11-23T06:09:22.876Z,4.27
2022-11-23T06:13:32.152Z,2.80
2022-11-23T06:17:41.313Z,1.87
2022-11-23T06:21:52.228Z,2.40
2022-11-23T06:26:02.595Z,2.13
2022-11-23T06:30:12.894Z,2.90
2022-11-23T06:34:22.112Z,2.60
2022-11-23T06:38:33.033Z,2.77
2022-11-23T06:42:42.153Z,2.83
2022-11-23T06:46:51.669Z,3.20
2022-11-23T06:51:01.450Z,4.03
2022-11-23T06:55:12.150Z,3.93
2022-11-23T06:59:21.271Z,4.00
2022-11-23T07:03:30.648Z,3.43
2022-11-23T07:07:39.940Z,4.23
2022-11-23T07:11:50.553Z,4.60
2022-11-23T07:16:00.473Z,4.87
2022-11-23T07:20:11.469Z,5.40
2022-11-23T07:24:20.530Z,5.07
2022-11-23T07:28:31.390Z,4.87
2022-11-23T07:32:40.453Z,5.37
2022-11-23T07:36:49.552Z,5.27
2022-11-23T07:40:59.442Z,4.33
2022-11-23T07:45:11.590Z,4.23
2022-11-23T07:49:20.648Z,4.40
2022-11-23T07:53:29.728Z,4.47
2022-11-23T07:57:38.731Z,4.50
2022-11-23T08:01:53.072Z,4.53
2022-11-23T08:06:19.428Z,3.23
2022-11-23T08:10:29.132Z,3.50
2022-11-23T08:14:39.273Z,3.30
2022-11-23T08:18:51.067Z,3.83
2022-11-23T08:23:00.150Z,3.70
2022-11-23T08:27:09.191Z,4.30
2022-11-23T08:31:18.232Z,4.10
2022-11-23T08:35:29.132Z,4.07
2022-11-23T08:39:38.271Z,3.93
2022-11-23T08:43:47.572Z,4.83
2022-11-23T08:48:01.650Z,4.90
2022-11-23T08:52:13.930Z,4.80
2022-11-23T08:56:23.350Z,5.27
2022-11-23T09:00:32.613Z,5.37
2022-11-23T09:04:42.448Z,5.50
2022-11-23T09:08:53.287Z,5.07
2022-11-23T09:17:58.815Z,5.27
2022-11-23T09:22:08.010Z,5.20
2022-11-23T09:26:18.730Z,4.13
2022-11-23T09:30:28.354Z,3.83
2022-11-23T09:34:37.528Z,4.30
2022-11-23T09:38:56.019Z,4.60
2022-11-23T09:43:37.570Z,3.30
2022-11-23T09:48:12.710Z,2.23
2022-11-23T09:52:24.514Z,2.87
2022-11-23T09:56:36.770Z,3.03
2022-11-23T10:00:52.471Z,3.40
2022-11-23T10:05:02.270Z,3.37
2022-11-23T10:09:51.671Z,4.30
2022-11-23T10:14:11.611Z,3.67
2022-11-23T10:19:04.076Z,4.57
2022-11-23T10:23:23.009Z,4.63
2022-11-23T10:27:33.132Z,4.27
2022-11-23T10:31:46.423Z,4.37
2022-11-23T10:35:56.736Z,5.67
2022-11-23T10:40:19.070Z,5.20
2022-11-23T10:44:33.307Z,6.23
2022-11-23T10:48:44.910Z,5.83
2022-11-23T10:52:56.451Z,6.07
2022-11-23T10:57:33.791Z,5.63
2022-11-23T11:01:43.029Z,5.93
2022-11-23T11:06:09.404Z,5.37
2022-11-23T11:10:40.204Z,6.30
2022-11-23T11:15:12.198Z,6.00
2022-11-23T11:19:29.115Z,6.30
2022-11-23T11:23:43.532Z,5.90
2022-11-23T11:27:54.410Z,5.90
2022-11-23T11:32:08.234Z,4.63
2022-11-23T11:36:19.750Z,4.47
2022-11-23T11:40:35.928Z,5.40
2022-11-23T11:44:56.991Z,4.93
2022-11-23T11:49:17.450Z,4.77
2022-11-23T11:54:01.931Z,5.30
2022-11-23T11:58:16.275Z,5.17
2022-11-23T12:02:29.440Z,7.10
2022-11-23T12:07:14.241Z,5.67
2022-11-23T12:11:28.805Z,4.90
2022-11-23T12:15:50.146Z,5.40
2022-11-23T12:20:10.070Z,4.60
2022-11-23T12:29:21.431Z,4.70
2022-11-23T12:33:59.933Z,4.83
2022-11-23T12:38:27.772Z,5.10
2022-11-23T12:43:38.853Z,4.60
2022-11-23T12:48:27.073Z,5.23
2022-11-23T12:53:10.790Z,5.00
2022-11-23T12:57:39.720Z,5.20
2022-11-23T13:01:54.687Z,6.97
2022-11-23T13:07:20.387Z,5.40
2022-11-23T13:11:32.694Z,6.07
2022-11-23T13:16:06.058Z,6.27
2022-11-23T13:20:44.751Z,6.57
2022-11-23T13:25:04.768Z,6.57
2022-11-23T13:30:00.098Z,7.30
2022-11-23T13:34:51.432Z,6.33
2022-11-23T13:39:03.310Z,6.97
2022-11-23T13:43:18.073Z,6.80
2022-11-23T13:47:27.412Z,7.67
2022-11-23T13:51:37.711Z,6.50
2022-11-23T13:55:48.591Z,8.20
2022-11-23T14:00:39.525Z,7.47
2022-11-23T14:04:48.976Z,6.80
2022-11-23T14:09:05.154Z,7.17
2022-11-23T14:13:20.728Z,6.80
2022-11-23T14:18:08.309Z,6.90
2022-11-23T14:22:26.473Z,7.33
2022-11-23T14:26:42.991Z,6.93
2022-11-23T14:31:08.747Z,5.10
2022-11-23T14:35:27.530Z,4.70
2022-11-23T14:40:04.490Z,5.03
2022-11-23T14:44:16.514Z,5.40
2022-11-23T14:48:30.611Z,6.87
2022-11-23T14:52:40.432Z,4.97
2022-11-23T14:56:51.169Z,5.43
2022-11-23T15:01:02.756Z,6.17
2022-11-23T15:05:21.238Z,6.97
2022-11-23T15:09:43.891Z,6.80
2022-11-23T15:13:55.612Z,7.10
2022-11-23T15:18:05.374Z,7.00
2022-11-23T15:22:20.650Z,6.00
2022-11-23T15:31:00.632Z,8.07
2022-11-23T15:35:14.077Z,6.40
2022-11-23T15:39:27.709Z,6.20
2022-11-23T15:43:36.952Z,5.17
2022-11-23T15:47:46.152Z,4.90
2022-11-23T15:52:02.151Z,7.13
2022-11-23T15:56:23.391Z,7.50
2022-11-23T16:00:33.230Z,8.53
2022-11-23T16:04:44.392Z,7.27
2022-11-23T16:08:53.872Z,6.57
2022-11-23T16:13:06.311Z,5.90
2022-11-23T16:17:20.919Z,4.60
2022-11-23T16:21:32.033Z,3.60
2022-11-23T16:25:41.395Z,3.13
2022-11-23T16:29:55.622Z,3.27
2022-11-23T16:34:12.192Z,4.43
2022-11-23T16:38:22.309Z,5.10
2022-11-23T16:42:31.389Z,4.00
2022-11-23T16:46:43.740Z,5.20
2022-11-23T16:50:54.159Z,4.53
2022-11-23T16:55:03.377Z,5.40
2022-11-23T16:59:18.851Z,5.57
2022-11-23T17:03:29.493Z,6.83
2022-11-23T17:07:38.653Z,7.27
2022-11-23T17:11:50.330Z,8.30
2022-11-23T17:15:59.474Z,6.70
2022-11-23T17:20:14.172Z,2.90
2022-11-23T17:24:23.472Z,4.33
2022-11-23T17:28:32.711Z,4.37
2022-11-23T17:32:41.852Z,4.17
2022-11-23T17:36:54.166Z,3.77
2022-11-23T17:41:03.591Z,2.93
2022-11-23T17:45:13.391Z,2.67
2022-11-23T17:49:27.832Z,4.90
2022-11-23T17:53:38.551Z,3.07
2022-11-23T17:57:47.992Z,3.83
2022-11-23T18:01:58.080Z,4.60
2022-11-23T18:06:07.516Z,3.83
2022-11-23T18:10:18.590Z,4.67
2022-11-23T18:14:29.168Z,4.17
2022-11-23T18:18:38.412Z,4.20
2022-11-23T18:22:47.470Z,4.27
2022-11-23T18:26:58.013Z,6.60
2022-11-23T18:31:07.349Z,4.33
2022-11-23T18:35:16.721Z,4.50
2022-11-23T18:39:25.915Z,4.07
2022-11-23T18:43:36.751Z,4.37
2022-11-23T18:47:45.873Z,5.00
2022-11-23T18:51:55.056Z,4.33
2022-11-23T18:56:05.529Z,4.30
2022-11-23T19:00:17.712Z,4.60
2022-11-23T19:04:26.852Z,4.87
2022-11-23T19:08:40.929Z,4.43
2022-11-23T19:12:50.170Z,4.57
2022-11-23T19:17:00.772Z,4.50
2022-11-23T19:21:17.510Z,5.13
2022-11-23T19:25:26.492Z,5.10
2022-11-23T19:29:35.801Z,4.60
2022-11-23T19:33:48.109Z,4.73
2022-11-23T19:37:57.231Z,5.40
2022-11-23T19:42:06.431Z,5.87
2022-11-23T19:46:16.787Z,5.73
2022-11-23T19:50:27.431Z,5.17
2022-11-23T19:54:36.548Z,8.80
2022-11-23T19:58:46.128Z,5.37
2022-11-23T20:02:55.247Z,4.70
2022-11-23T20:07:05.892Z,4.03
2022-11-23T20:11:16.933Z,4.60
2022-11-23T20:15:27.350Z,4.73
2022-11-23T20:19:37.170Z,3.37
2022-11-23T20:23:50.692Z,6.17
2022-11-23T20:28:01.869Z,4.50
2022-11-23T20:32:12.809Z,2.40
2022-11-23T20:36:23.654Z,3.50
2022-11-23T20:40:37.565Z,3.73
2022-11-23T20:44:49.231Z,3.87
2022-11-23T20:48:59.131Z,3.07
2022-11-23T20:53:10.289Z,4.13
2022-11-23T20:57:22.235Z,3.40
2022-11-23T21:01:31.728Z,3.73
2022-11-23T21:05:41.094Z,3.53
2022-11-23T21:09:50.394Z,3.60
2022-11-23T21:14:15.661Z,3.37
2022-11-23T21:18:26.567Z,2.97
2022-11-23T21:22:36.348Z,3.33
2022-11-23T21:26:45.571Z,3.77
2022-11-23T21:30:56.313Z,3.93
2022-11-23T21:35:06.348Z,3.40
2022-11-23T21:39:16.547Z,4.43
2022-11-23T21:43:28.919Z,4.67
2022-11-23T21:47:40.268Z,4.10
2022-11-23T21:51:50.029Z,4.20
2022-11-23T21:56:02.909Z,4.77
2022-11-23T22:00:13.329Z,4.60
2022-11-23T22:04:24.516Z,5.17
2022-11-23T22:08:33.763Z,5.37
2022-11-23T22:12:43.015Z,4.30
2022-11-23T22:16:54.034Z,4.20
2022-11-23T22:21:07.896Z,4.60
2022-11-23T22:25:17.255Z,4.57
2022-11-23T22:29:26.695Z,4.90
2022-11-23T22:33:36.178Z,4.07
2022-11-23T22:37:46.854Z,5.80
2022-11-23T22:41:56.158Z,4.73
2022-11-23T22:46:06.190Z,5.03
2022-11-23T22:50:16.297Z,4.27
2022-11-23T22:54:29.435Z,4.20
2022-11-23T22:58:39.235Z,4.27
2022-11-23T23:02:48.752Z,4.63
2022-11-23T23:06:58.083Z,5.30
2022-11-23T23:11:09.716Z,5.07
2022-11-23T23:15:19.094Z,4.90
2022-11-23T23:19:29.694Z,5.30
2022-11-23T23:23:39.916Z,6.13
2022-11-23T23:27:53.035Z,5.13
2022-11-23T23:32:02.432Z,4.70
2022-11-23T23:36:13.504Z,4.23
2022-11-23T23:40:22.896Z,5.30
2022-11-23T23:44:34.683Z,5.50
2022-11-23T23:48:44.341Z,5.23
2022-11-23T23:52:53.477Z,4.40
2022-11-23T23:57:02.640Z,4.17
